Карточка аэропорта UATT

Внимание!
Информация на этой странице в стадии наполнения.
Если вы не увидели какой-то информации, или заметили неточность - пожалуйста сообщите нам!
Спасибо!
Команда RU-STAFF
Название аэропортаАктобе
Название аэропорта (англ.)Aktobe
Превышение738 ft. (224.9 m.)
Координаты50°14.748', 57°12.402'
Высота перехода10000ft
Эшелон переходаFL120, QNH<733:FL130
Коды ответчика3440-3447, 3540-3547
Зона ОрВДАктобе РПИ (UATT)
Данные METARUATT 160600Z 01005MPS 9999 SCT008 BKN026CB 17/16 Q1009 TEMPO 1000 BR BKN005 BKN010CB RMK QFE737/0982
Проноз погоды (TAF)UATT 160500Z 1606/1706 01005MPS 9999 SCT020CB TX23/1610Z TN18/1700Z TEMPO 1606/1609 02011MPS 2000 SHRA BKN007 BKN015CB TEMPO 1609/1615 03012MPS 3100 -TSRA BKN007 BKN015CB
NOTAMshow/hide NOTAM
AWOS   TABLE

Информация о ВПП

ВПП Длина ВПП (м.) Покрытие Курс ВПП Частота ILS
133202Бетон135111.7
313202Бетон315111.7

Диспетчерские позиции




Спутниковое изображение